createdAt,value
2022-08-23T00:01:34.583Z,69.38
2022-08-23T00:04:09.448Z,69.56
2022-08-23T00:06:39.108Z,68.83
2022-08-23T00:09:06.144Z,68.73
2022-08-23T00:11:33.025Z,68.09
2022-08-23T00:14:01.575Z,68.31
2022-08-23T00:16:28.994Z,68.77
2022-08-23T00:18:56.065Z,68.85
2022-08-23T00:21:23.604Z,69.20
2022-08-23T00:23:50.723Z,69.64
2022-08-23T00:26:18.352Z,69.46
2022-08-23T00:28:45.427Z,69.54
2022-08-23T00:31:12.239Z,68.90
2022-08-23T00:33:39.129Z,69.62
2022-08-23T00:36:05.927Z,69.71
2022-08-23T00:38:35.147Z,70.22
2022-08-23T00:41:03.265Z,70.13
2022-08-23T00:43:53.555Z,69.99
2022-08-23T00:46:39.160Z,69.72
2022-08-23T00:49:08.881Z,70.17
2022-08-23T00:51:46.894Z,69.56
2022-08-23T00:54:20.463Z,70.59
2022-08-23T00:56:47.818Z,69.90
2022-08-23T00:59:14.862Z,70.57
2022-08-23T01:01:43.866Z,71.64
2022-08-23T01:04:11.768Z,71.45
2022-08-23T01:06:44.511Z,71.58
2022-08-23T01:09:16.284Z,71.36
2022-08-23T01:11:53.871Z,71.46
2022-08-23T01:14:23.589Z,71.38
2022-08-23T01:17:06.016Z,71.19
2022-08-23T01:19:35.753Z,71.93
2022-08-23T01:22:08.032Z,72.27
2022-08-23T01:25:05.735Z,71.23
2022-08-23T01:27:23.248Z,71.94
2022-08-23T01:29:50.183Z,71.89
2022-08-23T01:32:17.174Z,72.20
2022-08-23T01:34:45.868Z,72.31
2022-08-23T01:37:19.633Z,72.68
2022-08-23T01:39:46.824Z,72.34
2022-08-23T01:42:13.705Z,73.54
2022-08-23T01:44:40.557Z,73.78
2022-08-23T01:47:08.028Z,74.05
2022-08-23T01:49:35.564Z,73.87
2022-08-23T01:52:02.652Z,74.27
2022-08-23T01:54:29.738Z,73.73
2022-08-23T01:56:56.906Z,74.45
2022-08-23T01:59:24.491Z,74.21
2022-08-23T02:01:51.679Z,74.46
2022-08-23T02:04:18.662Z,74.63
2022-08-23T02:06:46.032Z,74.21
2022-08-23T02:09:17.898Z,74.98
2022-08-23T02:11:45.899Z,74.17
2022-08-23T02:14:16.259Z,74.74
2022-08-23T02:16:59.970Z,74.57
2022-08-23T02:19:31.560Z,74.72
2022-08-23T02:21:58.470Z,74.58
2022-08-23T02:24:25.845Z,74.23
2022-08-23T02:26:56.794Z,74.91
2022-08-23T02:29:25.332Z,74.96
2022-08-23T02:31:52.808Z,75.11
2022-08-23T02:34:20.170Z,74.99
2022-08-23T02:36:47.685Z,75.31
2022-08-23T02:39:15.686Z,74.86
2022-08-23T02:41:42.570Z,74.98
2022-08-23T02:44:10.848Z,74.38
2022-08-23T02:46:38.758Z,74.80
2022-08-23T02:49:06.326Z,75.17
2022-08-23T02:51:34.513Z,74.73
2022-08-23T02:54:01.807Z,74.22
2022-08-23T02:56:28.484Z,75.12
2022-08-23T02:58:55.232Z,74.16
2022-08-23T03:01:23.616Z,74.46
2022-08-23T03:03:50.521Z,74.31
2022-08-23T03:06:25.374Z,74.75
2022-08-23T03:08:52.717Z,74.44
2022-08-23T03:11:23.535Z,74.07
2022-08-23T03:13:51.201Z,74.25
2022-08-23T03:16:18.610Z,74.43
2022-08-23T03:18:45.779Z,73.41
2022-08-23T03:21:12.921Z,74.02
2022-08-23T03:23:39.926Z,73.99
2022-08-23T03:26:07.527Z,73.71
2022-08-23T03:28:35.499Z,74.23
2022-08-23T03:31:02.655Z,73.91
2022-08-23T03:33:29.356Z,73.93
2022-08-23T03:36:03.030Z,73.61
2022-08-23T03:38:29.694Z,73.85
2022-08-23T03:40:56.548Z,73.65
2022-08-23T03:43:23.269Z,73.96
2022-08-23T03:45:50.200Z,73.99
2022-08-23T03:48:17.757Z,73.15
2022-08-23T03:50:44.653Z,73.23
2022-08-23T03:53:12.198Z,73.72
2022-08-23T03:55:42.707Z,73.16
2022-08-23T03:58:10.504Z,73.49
2022-08-23T04:00:37.394Z,73.51
2022-08-23T04:03:04.193Z,73.40
2022-08-23T04:05:30.885Z,72.92
2022-08-23T04:07:57.653Z,73.09
2022-08-23T04:10:24.514Z,73.14
2022-08-23T04:12:52.868Z,73.19
2022-08-23T04:15:20.712Z,73.42
2022-08-23T04:17:47.474Z,73.03
2022-08-23T04:20:14.237Z,73.39
2022-08-23T04:22:41.132Z,73.43
2022-08-23T04:25:10.097Z,73.17
2022-08-23T04:27:55.211Z,72.79
2022-08-23T04:30:22.209Z,72.94
2022-08-23T04:32:50.776Z,73.02
2022-08-23T04:35:17.938Z,73.19
2022-08-23T04:37:44.791Z,72.77
2022-08-23T04:40:34.465Z,73.21
2022-08-23T04:43:01.308Z,73.08
2022-08-23T04:45:28.314Z,72.57
2022-08-23T04:47:55.221Z,72.42
2022-08-23T04:50:22.271Z,72.65
2022-08-23T04:52:49.070Z,72.45
2022-08-23T04:55:16.778Z,72.80
2022-08-23T04:57:43.610Z,72.99
2022-08-23T05:00:13.085Z,72.82
2022-08-23T05:02:40.325Z,73.03
2022-08-23T05:05:08.127Z,72.89
2022-08-23T05:07:41.794Z,72.64
2022-08-23T05:10:13.094Z,72.94
2022-08-23T05:12:40.412Z,72.87
2022-08-23T05:15:08.022Z,72.80
2022-08-23T05:17:34.805Z,72.99
2022-08-23T05:20:01.885Z,72.48
2022-08-23T05:22:29.126Z,73.03
2022-08-23T05:24:55.862Z,73.35
2022-08-23T05:27:22.784Z,73.12
2022-08-23T05:29:50.356Z,72.79
2022-08-23T05:32:17.328Z,73.24
2022-08-23T05:34:44.139Z,73.01
2022-08-23T05:37:11.074Z,73.77
2022-08-23T05:39:37.940Z,73.76
2022-08-23T05:42:11.809Z,74.08
2022-08-23T05:44:38.585Z,74.15
2022-08-23T05:47:10.774Z,74.92
2022-08-23T05:49:39.058Z,74.31
2022-08-23T05:52:06.641Z,74.63
2022-08-23T05:54:33.595Z,75.21
2022-08-23T05:57:00.333Z,75.04
2022-08-23T05:59:27.036Z,75.08
2022-08-23T06:01:53.778Z,74.56
2022-08-23T06:04:20.457Z,75.02
2022-08-23T06:06:48.769Z,75.28
2022-08-23T06:09:16.460Z,75.22
2022-08-23T06:11:46.539Z,75.83
2022-08-23T06:14:13.345Z,75.15
2022-08-23T06:16:41.341Z,75.76
2022-08-23T06:19:08.942Z,75.55
2022-08-23T06:21:35.929Z,75.74
2022-08-23T06:24:03.059Z,76.12
2022-08-23T06:26:38.251Z,75.89
2022-08-23T06:29:07.005Z,76.08
2022-08-23T06:31:45.659Z,75.63
2022-08-23T06:34:16.861Z,75.70
2022-08-23T06:36:43.533Z,75.61
2022-08-23T06:39:11.141Z,75.82
2022-08-23T06:41:38.372Z,76.06
2022-08-23T06:44:05.366Z,76.00
2022-08-23T06:46:39.604Z,76.57
2022-08-23T06:49:07.585Z,76.32
2022-08-23T06:51:44.573Z,75.53
2022-08-23T06:54:14.324Z,76.27
2022-08-23T06:56:42.697Z,76.45
2022-08-23T06:59:09.595Z,76.95
2022-08-23T07:04:55.988Z,76.11
2022-08-23T07:07:22.756Z,76.39
2022-08-23T07:09:49.506Z,76.58
2022-08-23T07:12:17.237Z,76.95
2022-08-23T07:14:44.438Z,77.13
2022-08-23T07:17:11.422Z,76.50
2022-08-23T07:19:38.379Z,76.24
2022-08-23T07:24:34.958Z,76.60
2022-08-23T07:27:06.556Z,76.46
2022-08-23T07:29:33.706Z,76.58
2022-08-23T07:32:00.481Z,76.37
2022-08-23T07:34:27.250Z,76.21
2022-08-23T07:36:54.390Z,76.61
2022-08-23T07:39:22.460Z,76.22
2022-08-23T07:41:49.446Z,76.49
2022-08-23T07:44:18.131Z,76.34
2022-08-23T07:46:46.312Z,76.69
2022-08-23T07:49:13.655Z,76.30
2022-08-23T07:54:10.704Z,75.87
2022-08-23T07:56:41.627Z,75.75
2022-08-23T07:59:09.093Z,75.25
2022-08-23T08:01:36.070Z,75.42
2022-08-23T08:04:03.730Z,75.15
2022-08-23T08:06:39.709Z,74.90
2022-08-23T08:09:06.412Z,75.09
2022-08-23T08:11:35.392Z,75.04
2022-08-23T08:14:04.668Z,74.83
2022-08-23T08:16:40.666Z,74.71
2022-08-23T08:19:08.682Z,75.01
2022-08-23T08:21:36.242Z,75.08
2022-08-23T08:24:07.735Z,74.71
2022-08-23T08:26:40.662Z,74.77
2022-08-23T08:29:07.989Z,74.28
2022-08-23T08:31:37.478Z,74.32
2022-08-23T08:34:04.442Z,74.04
2022-08-23T08:36:41.592Z,73.25
2022-08-23T08:39:10.613Z,72.72
2022-08-23T08:42:03.863Z,72.23
2022-08-23T08:44:40.599Z,71.66
2022-08-23T08:47:19.320Z,72.40
2022-08-23T08:49:56.867Z,71.67
2022-08-23T08:52:32.915Z,71.96
2022-08-23T08:55:12.043Z,71.90
2022-08-23T08:57:40.880Z,70.51
2022-08-23T09:00:09.015Z,70.81
2022-08-23T09:02:36.386Z,70.90
2022-08-23T09:05:07.889Z,70.75
2022-08-23T09:07:40.584Z,71.16
2022-08-23T09:10:32.729Z,70.93
2022-08-23T09:13:08.400Z,71.36
2022-08-23T09:15:46.803Z,71.46
2022-08-23T09:18:14.573Z,70.93
2022-08-23T09:20:42.368Z,70.76
2022-08-23T09:23:15.574Z,70.38
2022-08-23T09:25:50.910Z,70.74
2022-08-23T09:28:17.543Z,70.78
2022-08-23T09:30:55.291Z,70.43
2022-08-23T09:33:36.144Z,70.12
2022-08-23T09:36:10.641Z,70.55
2022-08-23T09:38:39.557Z,70.52
2022-08-23T09:41:20.400Z,69.96
2022-08-23T09:43:51.228Z,69.36
2022-08-23T09:46:28.519Z,69.61
2022-08-23T09:48:55.506Z,69.86
2022-08-23T09:51:25.147Z,69.51
2022-08-23T09:54:03.223Z,69.87
2022-08-23T09:56:43.115Z,69.15
2022-08-23T09:59:28.278Z,69.18
2022-08-23T10:01:57.090Z,69.37
2022-08-23T10:04:24.778Z,69.05
2022-08-23T10:06:51.965Z,69.39
2022-08-23T10:09:24.033Z,69.33
2022-08-23T10:11:50.650Z,68.99
2022-08-23T10:14:18.836Z,68.85
2022-08-23T10:17:20.759Z,69.16
2022-08-23T10:20:13.818Z,68.69
2022-08-23T10:22:54.264Z,68.57
2022-08-23T10:25:33.611Z,68.30
2022-08-23T10:28:39.584Z,68.19
2022-08-23T10:31:32.646Z,68.61
2022-08-23T10:34:05.182Z,68.12
2022-08-23T10:36:56.654Z,67.75
2022-08-23T10:39:23.270Z,67.74
2022-08-23T10:41:49.931Z,67.24
2022-08-23T10:44:42.760Z,67.51
2022-08-23T10:47:28.372Z,67.81
2022-08-23T10:49:56.362Z,67.51
2022-08-23T10:52:40.886Z,67.60
2022-08-23T10:55:17.811Z,67.07
2022-08-23T10:57:46.596Z,67.55
2022-08-23T11:00:17.487Z,67.21
2022-08-23T11:03:04.666Z,67.04
2022-08-23T11:05:33.762Z,66.99
2022-08-23T11:08:06.470Z,66.64
2022-08-23T11:10:55.680Z,66.54
2022-08-23T11:13:27.880Z,67.09
2022-08-23T11:16:03.689Z,66.53
2022-08-23T11:18:36.185Z,66.71
2022-08-23T11:21:02.868Z,66.26
2022-08-23T11:23:41.224Z,66.31
2022-08-23T11:26:09.636Z,66.00
2022-08-23T11:28:36.279Z,66.12
2022-08-23T11:31:11.971Z,66.18
2022-08-23T11:33:41.536Z,66.50
2022-08-23T11:36:11.309Z,66.17
2022-08-23T11:38:47.119Z,66.24
2022-08-23T11:41:19.607Z,66.28
2022-08-23T11:44:11.112Z,66.26
2022-08-23T11:47:06.869Z,66.24
2022-08-23T11:49:50.405Z,66.37
2022-08-23T11:52:23.247Z,66.55
2022-08-23T11:55:08.505Z,66.55
2022-08-23T11:57:50.602Z,66.81
2022-08-23T12:00:26.070Z,66.90
2022-08-23T12:03:04.736Z,66.64
2022-08-23T12:05:34.753Z,66.96
2022-08-23T12:08:01.502Z,67.07
2022-08-23T12:10:40.604Z,67.30
2022-08-23T12:13:22.687Z,67.65
2022-08-23T12:16:16.278Z,67.24
2022-08-23T12:18:47.787Z,67.03
2022-08-23T12:21:20.779Z,67.58
2022-08-23T12:23:49.662Z,67.56
2022-08-23T12:26:43.499Z,67.13
2022-08-23T12:29:21.277Z,67.63
2022-08-23T12:31:48.225Z,67.33
2022-08-23T12:34:44.277Z,67.01
2022-08-23T12:37:20.305Z,67.72
2022-08-23T12:39:52.589Z,67.67
2022-08-23T12:42:24.861Z,67.33
2022-08-23T12:45:13.304Z,67.46
2022-08-23T12:47:43.385Z,67.66
2022-08-23T12:50:21.254Z,67.98
2022-08-23T12:53:03.755Z,68.13
2022-08-23T12:55:32.551Z,68.20
2022-08-23T12:57:59.810Z,68.84
2022-08-23T13:00:30.127Z,68.79
2022-08-23T13:03:02.311Z,69.28
2022-08-23T13:05:32.157Z,69.50
2022-08-23T13:08:00.382Z,69.06
2022-08-23T13:10:27.153Z,69.01
2022-08-23T13:12:54.703Z,69.19
2022-08-23T13:15:41.130Z,69.63
2022-08-23T13:18:07.799Z,69.81
2022-08-23T13:20:34.448Z,69.25
2022-08-23T13:23:03.031Z,69.32
2022-08-23T13:25:32.872Z,69.86
2022-08-23T13:28:01.549Z,69.73
2022-08-23T13:30:30.408Z,69.77
2022-08-23T13:33:07.653Z,69.59
2022-08-23T13:35:36.316Z,69.73
2022-08-23T13:38:13.202Z,69.90
2022-08-23T13:40:53.789Z,70.42
2022-08-23T13:43:28.566Z,71.02
2022-08-23T13:45:57.194Z,70.13
2022-08-23T13:48:25.652Z,70.87
2022-08-23T13:50:52.552Z,70.38
2022-08-23T13:53:20.022Z,71.34
2022-08-23T13:55:48.611Z,70.24
2022-08-23T13:58:18.493Z,70.24
2022-08-23T14:00:55.210Z,70.69
2022-08-23T14:03:22.712Z,71.48
2022-08-23T14:05:49.997Z,71.21
2022-08-23T14:08:16.700Z,71.28
2022-08-23T14:10:43.674Z,72.27
2022-08-23T14:13:11.454Z,71.92
2022-08-23T14:15:56.052Z,71.58
2022-08-23T14:18:23.507Z,71.88
2022-08-23T14:20:51.303Z,71.92
2022-08-23T14:23:19.073Z,71.96
2022-08-23T14:25:47.264Z,72.60
2022-08-23T14:28:13.989Z,72.70
2022-08-23T14:30:40.800Z,71.87
2022-08-23T14:33:07.593Z,71.98
2022-08-23T14:35:34.601Z,72.09
2022-08-23T14:38:03.664Z,72.14
2022-08-23T14:40:30.726Z,73.10
2022-08-23T14:42:57.734Z,72.64
2022-08-23T14:45:24.395Z,72.01
2022-08-23T14:47:51.013Z,72.57
2022-08-23T14:50:17.845Z,72.89
2022-08-23T14:52:46.040Z,71.91
2022-08-23T14:55:13.291Z,71.97
2022-08-23T14:57:40.421Z,71.97
2022-08-23T15:00:08.641Z,71.96
2022-08-23T15:02:36.673Z,71.80
2022-08-23T15:05:04.044Z,72.03
2022-08-23T15:07:30.719Z,71.78
2022-08-23T15:09:57.319Z,72.68
2022-08-23T15:15:12.855Z,72.03
2022-08-23T15:17:44.941Z,71.84
2022-08-23T15:20:11.603Z,72.12
2022-08-23T15:22:40.059Z,71.97
2022-08-23T15:25:11.564Z,72.24
2022-08-23T15:27:38.221Z,72.14
2022-08-23T15:30:05.167Z,72.10
2022-08-23T15:32:32.513Z,72.32
2022-08-23T15:34:59.907Z,72.03
2022-08-23T15:37:27.400Z,72.08
2022-08-23T15:39:54.033Z,72.20
2022-08-23T15:42:20.785Z,72.28
2022-08-23T15:44:48.001Z,72.78
2022-08-23T15:47:18.595Z,71.88
2022-08-23T15:49:45.257Z,72.26
2022-08-23T15:52:11.914Z,72.01
2022-08-23T15:54:38.574Z,72.09
2022-08-23T15:57:05.279Z,71.86
2022-08-23T15:59:33.050Z,71.73
2022-08-23T16:01:59.688Z,71.37
2022-08-23T16:04:26.378Z,72.02
2022-08-23T16:06:59.479Z,72.10
2022-08-23T16:09:26.949Z,71.87
2022-08-23T16:11:59.648Z,72.29
2022-08-23T16:14:26.872Z,71.74
2022-08-23T16:16:54.421Z,71.98
2022-08-23T16:19:21.048Z,71.88
2022-08-23T16:21:48.226Z,71.55
2022-08-23T16:24:14.873Z,71.67
2022-08-23T16:26:43.736Z,71.80
2022-08-23T16:29:17.361Z,71.60
2022-08-23T16:31:44.928Z,71.72
2022-08-23T16:34:13.465Z,71.98
2022-08-23T16:36:41.655Z,71.66
2022-08-23T16:39:10.991Z,71.87
2022-08-23T16:41:37.701Z,71.72
2022-08-23T16:44:04.510Z,71.34
2022-08-23T16:46:41.317Z,71.54
2022-08-23T16:49:08.132Z,71.67
2022-08-23T16:51:34.768Z,71.48
2022-08-23T16:54:03.286Z,71.32
2022-08-23T16:56:40.083Z,71.21
2022-08-23T16:59:08.135Z,70.99
2022-08-23T17:02:10.896Z,71.24
2022-08-23T17:04:38.115Z,71.13
2022-08-23T17:07:04.762Z,70.69
2022-08-23T17:09:31.427Z,70.36
2022-08-23T17:12:01.216Z,70.46
2022-08-23T17:14:28.510Z,70.72
2022-08-23T17:16:55.546Z,70.42
2022-08-23T17:19:22.323Z,70.71
2022-08-23T17:21:49.147Z,70.75
2022-08-23T17:24:15.914Z,70.78
2022-08-23T17:26:42.708Z,70.45
2022-08-23T17:29:09.732Z,70.15
2022-08-23T17:31:36.896Z,70.72
2022-08-23T17:34:04.143Z,70.50
2022-08-23T17:36:39.302Z,70.40
2022-08-23T17:39:08.119Z,70.87
2022-08-23T17:41:35.404Z,70.31
2022-08-23T17:44:02.430Z,70.17
2022-08-23T17:46:36.104Z,71.25
2022-08-23T17:49:02.965Z,71.29
2022-08-23T17:51:29.587Z,70.96
2022-08-23T17:53:56.870Z,71.24
2022-08-23T17:56:23.561Z,71.74
2022-08-23T17:58:52.757Z,72.04
2022-08-23T18:01:19.573Z,71.66
2022-08-23T18:03:46.284Z,72.30
2022-08-23T18:06:17.506Z,72.07
2022-08-23T18:08:44.791Z,71.29
2022-08-23T18:11:11.482Z,71.63
2022-08-23T18:13:38.146Z,72.42
2022-08-23T18:16:05.218Z,71.70
2022-08-23T18:18:32.482Z,71.71
2022-08-23T18:21:03.380Z,72.18
2022-08-23T18:23:29.997Z,72.70
2022-08-23T18:25:56.718Z,72.25
2022-08-23T18:28:23.779Z,72.78
2022-08-23T18:30:51.851Z,72.66
2022-08-23T18:33:20.303Z,72.14
2022-08-23T18:35:52.479Z,72.54
2022-08-23T18:38:19.657Z,72.67
2022-08-23T18:40:47.500Z,72.25
2022-08-23T18:43:17.145Z,73.20
2022-08-23T18:45:44.743Z,72.87
2022-08-23T18:48:12.493Z,72.45
2022-08-23T18:50:42.644Z,72.12
2022-08-23T18:53:09.979Z,72.71
2022-08-23T18:55:36.693Z,73.30
2022-08-23T18:58:04.746Z,73.39
2022-08-23T19:00:31.943Z,74.49
2022-08-23T19:02:59.250Z,73.54
2022-08-23T19:05:26.245Z,72.96
2022-08-23T19:07:53.103Z,73.27
2022-08-23T19:10:20.758Z,73.54
2022-08-23T19:12:54.152Z,72.74
2022-08-23T19:15:21.543Z,73.79
2022-08-23T19:17:48.538Z,73.16
2022-08-23T19:20:16.385Z,72.73
2022-08-23T19:22:43.768Z,73.68
2022-08-23T19:25:10.983Z,73.30
2022-08-23T19:27:38.068Z,73.97
2022-08-23T19:30:06.715Z,73.86
2022-08-23T19:32:35.536Z,73.45
2022-08-23T19:35:02.516Z,73.79
2022-08-23T19:37:29.412Z,74.94
2022-08-23T19:39:56.528Z,73.90
2022-08-23T19:42:23.684Z,74.46
2022-08-23T19:44:50.320Z,73.35
2022-08-23T19:47:19.822Z,73.03
2022-08-23T19:49:48.621Z,73.79
2022-08-23T19:52:15.554Z,74.97
2022-08-23T19:54:42.323Z,74.74
2022-08-23T19:57:10.365Z,74.91
2022-08-23T19:59:41.662Z,74.48
2022-08-23T20:02:10.002Z,74.89
2022-08-23T20:04:37.461Z,74.26
2022-08-23T20:07:05.455Z,73.53
2022-08-23T20:09:33.024Z,74.89
2022-08-23T20:12:00.176Z,75.27
2022-08-23T20:14:27.805Z,74.88
2022-08-23T20:16:55.146Z,75.04
2022-08-23T20:19:22.313Z,76.19
2022-08-23T20:21:49.477Z,75.85
2022-08-23T20:24:17.150Z,76.18
2022-08-23T20:26:48.012Z,75.38
2022-08-23T20:29:19.477Z,76.19
2022-08-23T20:31:49.623Z,75.07
2022-08-23T20:34:16.729Z,76.03
2022-08-23T20:36:50.984Z,75.97
2022-08-23T20:39:23.224Z,76.75
2022-08-23T20:41:52.192Z,76.26
2022-08-23T20:44:19.971Z,76.89
2022-08-23T20:46:50.719Z,76.59
2022-08-23T20:49:20.391Z,77.27
2022-08-23T20:51:47.400Z,77.00
2022-08-23T20:54:15.354Z,77.56
2022-08-23T20:56:45.917Z,76.42
2022-08-23T20:59:14.982Z,76.91
2022-08-23T21:01:42.385Z,77.29
2022-08-23T21:04:09.618Z,76.63
2022-08-23T21:06:47.310Z,77.21
2022-08-23T21:09:17.464Z,76.53
2022-08-23T21:11:44.657Z,76.70
2022-08-23T21:14:13.256Z,76.72
2022-08-23T21:16:45.101Z,76.64
2022-08-23T21:19:12.241Z,76.94
2022-08-23T21:21:39.752Z,77.10
2022-08-23T21:24:07.749Z,76.41
2022-08-23T21:26:38.231Z,77.05
2022-08-23T21:29:06.071Z,76.57
2022-08-23T21:31:33.037Z,76.88
2022-08-23T21:34:02.543Z,76.61
2022-08-23T21:36:37.463Z,76.50
2022-08-23T21:39:04.645Z,76.42
2022-08-23T21:41:34.539Z,76.40
2022-08-23T21:44:02.459Z,76.30
2022-08-23T21:46:36.574Z,76.65
2022-08-23T21:49:04.074Z,76.51
2022-08-23T21:51:31.501Z,76.14
2022-08-23T21:54:02.326Z,76.45
2022-08-23T21:56:35.913Z,76.70
2022-08-23T21:59:04.825Z,76.58
2022-08-23T22:01:34.544Z,76.52
2022-08-23T22:04:02.693Z,77.32
2022-08-23T22:06:39.416Z,76.87
2022-08-23T22:09:08.525Z,76.51
2022-08-23T22:11:37.843Z,76.36
2022-08-23T22:14:04.684Z,76.38
2022-08-23T22:16:45.648Z,76.95
2022-08-23T22:19:13.399Z,76.98
2022-08-23T22:21:40.239Z,76.55
2022-08-23T22:24:07.514Z,76.63
2022-08-23T22:26:41.325Z,76.37
2022-08-23T22:29:08.745Z,76.66
2022-08-23T22:31:36.291Z,76.79
2022-08-23T22:34:03.999Z,76.30
2022-08-23T22:36:41.065Z,77.18
2022-08-23T22:39:08.104Z,76.91
2022-08-23T22:41:35.548Z,77.50
2022-08-23T22:44:03.711Z,77.33
2022-08-23T22:46:41.291Z,76.48
2022-08-23T22:49:09.596Z,76.89
2022-08-23T22:51:38.458Z,77.64
2022-08-23T22:54:07.299Z,77.75
2022-08-23T22:56:54.985Z,77.69
2022-08-23T22:59:25.257Z,76.84
2022-08-23T23:02:03.673Z,77.96
2022-08-23T23:04:32.887Z,77.91
2022-08-23T23:06:59.988Z,78.03
2022-08-23T23:09:27.165Z,77.68
2022-08-23T23:11:54.906Z,77.52
2022-08-23T23:14:22.375Z,77.08
2022-08-23T23:16:50.341Z,77.50
2022-08-23T23:19:36.225Z,77.00
2022-08-23T23:22:05.028Z,77.29
2022-08-23T23:24:34.115Z,77.11
2022-08-23T23:27:01.759Z,77.24
2022-08-23T23:29:29.619Z,76.74
2022-08-23T23:31:57.254Z,76.44
2022-08-23T23:34:24.422Z,76.91
2022-08-23T23:36:56.277Z,76.77
2022-08-23T23:39:23.515Z,77.48
2022-08-23T23:41:51.029Z,77.74
2022-08-23T23:44:22.402Z,77.33
2022-08-23T23:46:56.214Z,77.45
2022-08-23T23:49:23.604Z,77.11
2022-08-23T23:51:59.670Z,77.27
2022-08-23T23:54:26.774Z,77.48
2022-08-23T23:56:53.792Z,77.85
2022-08-23T23:59:20.847Z,76.90
